ANA8418 RJAA-KLAX
Flight info
| Callsign | ANA8418 |
|---|---|
| Flight time | N/A |
| Altitude | 39000 |
| Route | GULBO Y808 NOLAX Y812 ADNAP OTR5 KALNA/N0480F410 44N160E 47N170E 49N180E 50N170W 50N160W 49N150W 46N140W 42N130W DCT VESPA DCT ENI DCT OAK DCT BURGL IRNMN2 |
| Aircraft | B77L/H-SDE1E2E3FGHIJ1J2J3J4J5M1P2RWY/LB1D1 |
Departure
| Time | N/A |
|---|---|
| Airport | Narita International Airport (RJAA) |
Arrival
| Time | 2026-04-20 14:55 |
|---|---|
| Airport | Los Angeles International Airport (KLAX) |
| Time | Latitude | Longitude | Altitude | Speed | Heading |
|---|---|---|---|---|---|
| 2026-04-20 14:25 | 35.59773 | -120.05378 | 41017 ft | 463 kts | 154° |
| 2026-04-20 14:25 | 35.54247 | -120.01414 | 41015 ft | 464 kts | 154° |
| 2026-04-20 14:26 | 35.48708 | -119.97318 | 40852 ft | 468 kts | 153° |
| 2026-04-20 14:26 | 35.45900 | -119.95213 | 40131 ft | 475 kts | 152° |
| 2026-04-20 14:26 | 35.43094 | -119.93097 | 39458 ft | 473 kts | 152° |
| 2026-04-20 14:27 | 35.40294 | -119.90986 | 38763 ft | 472 kts | 151° |
| 2026-04-20 14:27 | 35.37509 | -119.88889 | 38155 ft | 467 kts | 151° |
| 2026-04-20 14:27 | 35.34749 | -119.86815 | 37617 ft | 462 kts | 152° |
| 2026-04-20 14:27 | 35.32031 | -119.84777 | 37120 ft | 456 kts | 152° |
| 2026-04-20 14:28 | 35.29333 | -119.82757 | 36626 ft | 451 kts | 152° |
| 2026-04-20 14:28 | 35.26726 | -119.80649 | 36129 ft | 448 kts | 147° |
| 2026-04-20 14:28 | 35.24240 | -119.78361 | 35663 ft | 445 kts | 145° |
| 2026-04-20 14:28 | 35.21822 | -119.76024 | 35161 ft | 442 kts | 144° |
| 2026-04-20 14:29 | 35.19428 | -119.73696 | 34674 ft | 438 kts | 144° |
| 2026-04-20 14:29 | 35.17039 | -119.71398 | 34190 ft | 435 kts | 145° |
| 2026-04-20 14:29 | 35.14656 | -119.69137 | 33649 ft | 432 kts | 146° |
| 2026-04-20 14:29 | 35.12279 | -119.66906 | 33119 ft | 429 kts | 146° |
| 2026-04-20 14:30 | 35.09918 | -119.64704 | 32613 ft | 425 kts | 146° |
| 2026-04-20 14:30 | 35.07578 | -119.62527 | 32136 ft | 421 kts | 147° |
| 2026-04-20 14:30 | 35.05256 | -119.60369 | 31647 ft | 417 kts | 147° |
| 2026-04-20 14:30 | 35.02954 | -119.58231 | 31172 ft | 414 kts | 147° |
| 2026-04-20 14:31 | 35.00673 | -119.56114 | 30707 ft | 410 kts | 147° |
| 2026-04-20 14:31 | 34.98417 | -119.54020 | 30254 ft | 407 kts | 147° |
| 2026-04-20 14:31 | 34.96171 | -119.51937 | 29734 ft | 404 kts | 147° |
| 2026-04-20 14:31 | 34.93939 | -119.49868 | 29210 ft | 402 kts | 148° |
| 2026-04-20 14:32 | 34.91721 | -119.47814 | 28711 ft | 398 kts | 148° |
| 2026-04-20 14:32 | 34.89521 | -119.45807 | 28249 ft | 394 kts | 148° |
| 2026-04-20 14:32 | 34.87323 | -119.43841 | 27789 ft | 390 kts | 149° |
| 2026-04-20 14:32 | 34.85140 | -119.41898 | 27316 ft | 387 kts | 149° |
| 2026-04-20 14:33 | 34.82978 | -119.39973 | 26881 ft | 384 kts | 149° |
| 2026-04-20 14:33 | 34.80828 | -119.38054 | 26444 ft | 381 kts | 149° |
| 2026-04-20 14:33 | 34.78700 | -119.36153 | 25990 ft | 379 kts | 149° |
| 2026-04-20 14:33 | 34.76578 | -119.34259 | 25565 ft | 377 kts | 149° |
| 2026-04-20 14:34 | 34.74474 | -119.32383 | 25143 ft | 375 kts | 149° |
| 2026-04-20 14:34 | 34.72366 | -119.30533 | 24708 ft | 373 kts | 150° |
| 2026-04-20 14:34 | 34.70263 | -119.28700 | 24279 ft | 371 kts | 150° |
| 2026-04-20 14:34 | 34.68166 | -119.26872 | 23851 ft | 370 kts | 150° |
| 2026-04-20 14:35 | 34.66079 | -119.25051 | 23378 ft | 368 kts | 150° |
| 2026-04-20 14:35 | 34.64007 | -119.23248 | 22898 ft | 366 kts | 150° |
| 2026-04-20 14:35 | 34.62638 | -119.22066 | 22596 ft | 364 kts | 150° |
| 2026-04-20 14:35 | 34.59883 | -119.19694 | 22023 ft | 361 kts | 150° |
| 2026-04-20 14:36 | 34.57845 | -119.17939 | 21589 ft | 359 kts | 150° |
| 2026-04-20 14:36 | 34.55813 | -119.16187 | 21166 ft | 357 kts | 149° |
| 2026-04-20 14:36 | 34.54485 | -119.15019 | 20885 ft | 356 kts | 149° |
| 2026-04-20 14:36 | 34.52489 | -119.13245 | 20473 ft | 354 kts | 148° |
| 2026-04-20 14:37 | 34.50508 | -119.11483 | 20044 ft | 353 kts | 148° |
| 2026-04-20 14:37 | 34.48534 | -119.09731 | 19637 ft | 352 kts | 148° |
| 2026-04-20 14:37 | 34.46559 | -119.07983 | 19199 ft | 351 kts | 148° |
| 2026-04-20 14:37 | 34.44588 | -119.06240 | 18760 ft | 351 kts | 148° |
| 2026-04-20 14:38 | 34.41975 | -119.03959 | 18184 ft | 349 kts | 149° |
| 2026-04-20 14:38 | 34.40002 | -119.02257 | 17699 ft | 348 kts | 149° |
| 2026-04-20 14:38 | 34.38674 | -119.01110 | 17392 ft | 346 kts | 148° |
| 2026-04-20 14:38 | 34.36720 | -118.99420 | 16948 ft | 344 kts | 148° |
| 2026-04-20 14:39 | 34.34784 | -118.97745 | 16529 ft | 341 kts | 148° |
| 2026-04-20 14:39 | 34.32871 | -118.96055 | 16110 ft | 340 kts | 147° |
| 2026-04-20 14:39 | 34.30987 | -118.94338 | 15665 ft | 338 kts | 146° |
| 2026-04-20 14:39 | 34.29140 | -118.92650 | 15261 ft | 336 kts | 146° |
| 2026-04-20 14:40 | 34.27279 | -118.90957 | 14854 ft | 334 kts | 146° |
| 2026-04-20 14:40 | 34.25403 | -118.89255 | 14419 ft | 333 kts | 146° |
| 2026-04-20 14:40 | 34.23585 | -118.87589 | 13996 ft | 331 kts | 146° |
| 2026-04-20 14:40 | 34.21757 | -118.85906 | 13556 ft | 330 kts | 146° |
| 2026-04-20 14:41 | 34.19929 | -118.84224 | 13107 ft | 329 kts | 146° |
| 2026-04-20 14:41 | 34.18113 | -118.82557 | 12664 ft | 327 kts | 146° |
| 2026-04-20 14:41 | 34.16330 | -118.80912 | 12455 ft | 319 kts | 144° |
| 2026-04-20 14:41 | 34.14654 | -118.79176 | 12203 ft | 314 kts | 141° |
| 2026-04-20 14:42 | 34.13058 | -118.77409 | 11929 ft | 307 kts | 140° |
| 2026-04-20 14:42 | 34.11511 | -118.75686 | 11492 ft | 303 kts | 140° |
| 2026-04-20 14:42 | 34.09954 | -118.73970 | 10958 ft | 303 kts | 141° |
| 2026-04-20 14:42 | 34.08397 | -118.72267 | 10548 ft | 299 kts | 141° |
| 2026-04-20 14:43 | 34.06872 | -118.70607 | 10253 ft | 292 kts | 141° |
| 2026-04-20 14:43 | 34.05400 | -118.69007 | 10111 ft | 279 kts | 141° |
| 2026-04-20 14:43 | 34.03978 | -118.67447 | 9765 ft | 271 kts | 137° |
| 2026-04-20 14:43 | 34.02983 | -118.65557 | 9422 ft | 269 kts | 112° |
| 2026-04-20 14:44 | 34.02642 | -118.63358 | 9132 ft | 266 kts | 99° |
| 2026-04-20 14:44 | 34.02454 | -118.61139 | 8840 ft | 268 kts | 99° |
| 2026-04-20 14:44 | 34.02248 | -118.58881 | 8510 ft | 275 kts | 99° |
| 2026-04-20 14:44 | 34.02033 | -118.56577 | 8174 ft | 277 kts | 99° |
| 2026-04-20 14:45 | 34.01822 | -118.54290 | 7906 ft | 271 kts | 99° |
| 2026-04-20 14:45 | 34.01615 | -118.52055 | 7665 ft | 264 kts | 99° |
| 2026-04-20 14:45 | 34.01414 | -118.49901 | 7446 ft | 254 kts | 99° |
| 2026-04-20 14:45 | 34.01218 | -118.47820 | 7228 ft | 245 kts | 99° |
| 2026-04-20 14:46 | 34.01043 | -118.45811 | 7019 ft | 236 kts | 95° |
| 2026-04-20 14:46 | 34.01231 | -118.43842 | 6842 ft | 240 kts | 80° |
| 2026-04-20 14:46 | 34.01607 | -118.41873 | 6649 ft | 243 kts | 79° |
| 2026-04-20 14:46 | 34.01983 | -118.39880 | 6445 ft | 244 kts | 79° |
| 2026-04-20 14:47 | 34.02341 | -118.37903 | 6215 ft | 238 kts | 80° |
| 2026-04-20 14:47 | 34.02680 | -118.35993 | 6094 ft | 229 kts | 80° |
| 2026-04-20 14:47 | 34.02931 | -118.34141 | 6030 ft | 227 kts | 85° |
| 2026-04-20 14:48 | 34.03305 | -118.30281 | 5926 ft | 232 kts | 85° |
| 2026-04-20 14:48 | 34.03475 | -118.28357 | 5666 ft | 229 kts | 86° |
| 2026-04-20 14:48 | 34.03626 | -118.26461 | 5319 ft | 227 kts | 86° |
| 2026-04-20 14:48 | 34.03779 | -118.24574 | 4975 ft | 225 kts | 86° |
| 2026-04-20 14:49 | 34.03928 | -118.22732 | 4641 ft | 222 kts | 85° |
| 2026-04-20 14:49 | 34.04071 | -118.20879 | 4215 ft | 220 kts | 90° |
| 2026-04-20 14:49 | 34.03729 | -118.19117 | 3806 ft | 218 kts | 123° |
| 2026-04-20 14:49 | 34.02563 | -118.17896 | 3643 ft | 225 kts | 157° |
| 2026-04-20 14:50 | 34.01082 | -118.17494 | 3599 ft | 219 kts | 171° |
| 2026-04-20 14:50 | 33.99575 | -118.17239 | 3602 ft | 219 kts | 171° |
| 2026-04-20 14:50 | 33.98061 | -118.16979 | 3599 ft | 220 kts | 172° |
| 2026-04-20 14:50 | 33.96555 | -118.17096 | 3586 ft | 222 kts | 200° |
| 2026-04-20 14:51 | 33.95288 | -118.18194 | 3303 ft | 231 kts | 233° |
| 2026-04-20 14:51 | 33.94750 | -118.19958 | 3049 ft | 224 kts | 268° |
| 2026-04-20 14:51 | 33.94960 | -118.21763 | 2773 ft | 211 kts | 279° |
| 2026-04-20 14:51 | 33.95061 | -118.23494 | 2504 ft | 204 kts | 269° |
| 2026-04-20 14:52 | 33.95036 | -118.25165 | 2271 ft | 192 kts | 266° |
| 2026-04-20 14:52 | 33.94925 | -118.26723 | 1989 ft | 182 kts | 263° |
| 2026-04-20 14:52 | 33.94778 | -118.28167 | 1781 ft | 166 kts | 262° |
| 2026-04-20 14:52 | 33.94642 | -118.29484 | 1535 ft | 149 kts | 262° |
| 2026-04-20 14:53 | 33.94516 | -118.30703 | 1353 ft | 146 kts | 262° |
| 2026-04-20 14:53 | 33.94392 | -118.31914 | 1151 ft | 145 kts | 262° |
| 2026-04-20 14:53 | 33.94270 | -118.33110 | 959 ft | 144 kts | 263° |
| 2026-04-20 14:53 | 33.94146 | -118.34304 | 773 ft | 144 kts | 262° |
| 2026-04-20 14:54 | 33.94022 | -118.35496 | 580 ft | 143 kts | 263° |
| 2026-04-20 14:54 | 33.93900 | -118.36683 | 391 ft | 142 kts | 263° |
| 2026-04-20 14:54 | 33.93777 | -118.37873 | 209 ft | 145 kts | 263° |
| 2026-04-20 14:54 | 33.93649 | -118.39073 | 103 ft | 138 kts | 263° |
| 2026-04-20 14:55 | 33.93554 | -118.40055 | 101 ft | 93 kts | 263° |
| 2026-04-20 14:55 | 33.93502 | -118.40567 | 99 ft | 29 kts | 263° |
| 2026-04-20 14:55 | 33.93473 | -118.40718 | 98 ft | 11 kts | 219° |
| 2026-04-20 14:55 | 33.93395 | -118.40712 | 100 ft | 12 kts | 158° |
| 2026-04-20 14:56 | 33.93374 | -118.40613 | 98 ft | 14 kts | 84° |
| 2026-04-20 14:56 | 33.93388 | -118.40486 | 100 ft | 16 kts | 83° |
| 2026-04-20 14:56 | 33.93403 | -118.40341 | 98 ft | 18 kts | 83° |
| 2026-04-20 14:56 | 33.93419 | -118.40179 | 98 ft | 21 kts | 83° |
| 2026-04-20 14:57 | 33.93437 | -118.40000 | 101 ft | 22 kts | 83° |
| 2026-04-20 14:57 | 33.93457 | -118.39809 | 99 ft | 24 kts | 83° |
| 2026-04-20 14:57 | 33.93478 | -118.39605 | 101 ft | 25 kts | 83° |
| 2026-04-20 14:57 | 33.93499 | -118.39400 | 98 ft | 23 kts | 83° |
| 2026-04-20 14:58 | 33.93518 | -118.39213 | 97 ft | 21 kts | 83° |
| 2026-04-20 14:58 | 33.93537 | -118.39029 | 101 ft | 23 kts | 83° |
| 2026-04-20 14:58 | 33.93557 | -118.38833 | 98 ft | 25 kts | 83° |
| 2026-04-20 14:58 | 33.93578 | -118.38623 | 101 ft | 26 kts | 83° |
| 2026-04-20 14:59 | 33.93600 | -118.38410 | 99 ft | 25 kts | 83° |
| 2026-04-20 14:59 | 33.93616 | -118.38254 | 98 ft | 14 kts | 83° |
| 2026-04-20 14:59 | 33.93623 | -118.38161 | 100 ft | 11 kts | 96° |
| 2026-04-20 14:59 | 33.93559 | -118.38127 | 99 ft | 12 kts | 179° |
| 2026-04-20 15:00 | 33.93504 | -118.38127 | 100 ft | 6 kts | 180° |
| 2026-04-20 15:00 | 33.93490 | -118.38138 | 99 ft | 2 kts | 241° |
| 2026-04-20 15:00 | 33.93488 | -118.38169 | 99 ft | 5 kts | 270° |
| 2026-04-20 15:00 | 33.93479 | -118.38196 | 101 ft | 3 kts | 234° |
| 2026-04-20 15:01 | 33.93469 | -118.38208 | 100 ft | 0 kts | 224° |
| 2026-04-20 15:01 | 33.93465 | -118.38212 | 99 ft | 0 kts | 224° |